METAR Data
IDs: Format: Raw Decoded Include TAF

Data at: 0317 UTC 25 Feb 2021

EHWO 250255Z AUTO 20004KT 180V310 9999 OVC280 13/09 Q1024 BLU